createdAt,value
2018-09-05T06:20:02.007Z,85.80
2018-09-05T06:22:35.972Z,99.90
2018-09-05T06:25:10.419Z,99.90
2018-09-05T06:27:45.041Z,99.90
2018-09-05T06:30:26.585Z,99.90
2018-09-05T06:33:03.341Z,99.90
2018-09-05T06:35:34.397Z,99.90
2018-09-05T06:38:03.863Z,99.90
2018-09-05T06:40:37.105Z,99.90
2018-09-05T06:43:18.916Z,99.90
2018-09-05T06:45:58.241Z,99.90
2018-09-05T06:48:31.227Z,99.90
2018-09-05T06:51:06.777Z,99.90
2018-09-05T06:53:44.293Z,99.90
2018-09-05T06:56:14.705Z,99.90
2018-09-05T06:58:58.793Z,99.90
2018-09-05T07:01:30.176Z,99.90
2018-09-05T07:04:03.794Z,99.90
2018-09-05T07:06:36.049Z,99.90
2018-09-05T07:09:12.429Z,99.70
2018-09-05T07:11:42.513Z,98.70
2018-09-05T07:14:16.140Z,97.90
2018-09-05T07:16:55.222Z,96.80
2018-09-05T07:19:28.957Z,96.10
2018-09-05T07:22:04.151Z,95.30
2018-09-05T07:24:38.841Z,94.40
2018-09-05T07:27:18.642Z,93.20
2018-09-05T07:30:03.403Z,91.50
2018-09-05T07:32:38.363Z,90.30
2018-09-05T07:35:14.577Z,89.70
2018-09-05T07:37:47.333Z,88.60
2018-09-05T07:40:17.499Z,86.40
2018-09-05T07:43:59.091Z,82.90
2018-09-05T07:46:29.837Z,80.60
2018-09-05T07:49:13.590Z,80.80
2018-09-05T07:51:44.408Z,80.00
2018-09-05T07:54:18.969Z,88.00
2018-09-05T07:56:53.597Z,83.70
2018-09-05T07:59:28.819Z,82.10
2018-09-05T08:02:02.197Z,81.60
2018-09-05T08:04:39.854Z,82.10
2018-09-05T08:07:09.597Z,83.50
2018-09-05T08:09:41.268Z,85.60
2018-09-05T08:12:19.201Z,80.50
2018-09-05T08:14:51.277Z,77.20
2018-09-05T08:17:25.857Z,73.90
2018-09-05T08:20:00.828Z,77.70
2018-09-05T08:22:32.039Z,78.70
2018-09-05T08:25:10.420Z,77.40
2018-09-05T08:27:49.225Z,74.60
2018-09-05T08:30:25.089Z,70.10
2018-09-05T08:32:55.465Z,68.70
2018-09-05T08:35:25.003Z,67.20
2018-09-05T08:37:54.567Z,63.50
2018-09-05T08:40:24.310Z,64.30
2018-09-05T08:42:55.455Z,61.20
2018-09-05T08:45:24.872Z,59.80
2018-09-05T08:47:54.405Z,60.80
2018-09-05T08:50:23.378Z,62.10
2018-09-05T08:52:52.550Z,63.50
2018-09-05T08:55:21.816Z,65.40
2018-09-05T08:57:50.808Z,68.10
2018-09-05T09:00:19.904Z,71.80
2018-09-05T09:02:49.084Z,64.90
2018-09-05T09:05:20.405Z,63.40
2018-09-05T09:07:50.732Z,61.10
2018-09-05T09:10:19.880Z,59.10
2018-09-05T09:12:48.973Z,59.90
2018-09-05T09:15:18.385Z,58.50
2018-09-05T09:17:47.983Z,57.30
2018-09-05T09:20:17.102Z,55.40
2018-09-05T09:22:46.327Z,62.90
2018-09-05T09:25:17.285Z,58.40
2018-09-05T09:27:46.428Z,64.20
2018-09-05T09:30:15.870Z,67.30
2018-09-05T09:32:45.908Z,62.30
2018-09-05T09:35:15.757Z,58.20
2018-09-05T09:37:45.561Z,58.10
2018-09-05T09:40:14.712Z,59.80
2018-09-05T09:42:43.872Z,62.50
2018-09-05T09:45:13.068Z,62.80
2018-09-05T09:47:42.957Z,63.70
2018-09-05T09:50:12.856Z,60.70
2018-09-05T09:52:42.601Z,60.50
2018-09-05T09:55:12.053Z,56.30
2018-09-05T09:57:41.248Z,53.80
2018-09-05T10:00:11.995Z,51.80
2018-09-05T10:02:46.513Z,54.40
2018-09-05T10:05:20.892Z,54.50
2018-09-05T10:07:56.054Z,53.00
2018-09-05T10:10:30.616Z,55.80
2018-09-05T10:13:04.859Z,57.60
2018-09-05T10:15:39.757Z,54.70
2018-09-05T10:18:14.040Z,52.30
2018-09-05T10:20:43.152Z,52.70
2018-09-05T10:23:13.904Z,53.10
2018-09-05T10:25:43.336Z,55.60
2018-09-05T10:28:12.395Z,52.10
2018-09-05T10:30:42.441Z,48.30
2018-09-05T10:33:11.545Z,46.30
2018-09-05T10:35:43.197Z,52.30
2018-09-05T10:38:13.217Z,57.60
2018-09-05T10:40:42.311Z,59.00
2018-09-05T10:43:12.008Z,56.90
2018-09-05T10:45:41.212Z,60.60
2018-09-05T10:48:10.461Z,61.20
2018-09-05T10:50:40.167Z,62.40
2018-09-05T10:53:09.384Z,61.30
2018-09-05T10:55:38.596Z,58.10
2018-09-05T10:58:10.106Z,57.90
2018-09-05T11:00:39.335Z,56.40
2018-09-05T11:03:09.078Z,56.00
2018-09-05T11:05:38.143Z,54.20
2018-09-05T11:08:08.652Z,53.60
2018-09-05T11:10:38.669Z,53.80
2018-09-05T11:13:07.822Z,56.00
2018-09-05T11:15:37.193Z,52.20
2018-09-05T11:18:06.304Z,53.90
2018-09-05T11:20:37.269Z,51.10
2018-09-05T11:23:06.928Z,50.00
2018-09-05T11:25:38.617Z,52.70
2018-09-05T11:28:07.776Z,54.40
2018-09-05T11:30:37.041Z,53.40
2018-09-05T11:33:06.200Z,55.20
2018-09-05T11:35:35.304Z,55.70
2018-09-05T11:38:05.172Z,56.20
2018-09-05T11:40:34.359Z,57.40
2018-09-05T11:43:03.470Z,59.20
2018-09-05T11:45:33.996Z,57.30
2018-09-05T11:48:03.286Z,55.10
2018-09-05T11:50:33.077Z,56.50
2018-09-05T11:53:02.548Z,55.90
2018-09-05T11:55:31.709Z,57.00
2018-09-05T11:58:01.328Z,56.40
2018-09-05T12:00:30.548Z,54.60
2018-09-05T12:03:00.676Z,58.40
2018-09-05T12:05:29.968Z,58.70
2018-09-05T12:07:59.960Z,59.00
2018-09-05T12:10:29.809Z,59.60
2018-09-05T12:12:58.901Z,58.30
2018-09-05T12:15:28.145Z,57.30
2018-09-05T12:17:58.114Z,56.00
2018-09-05T12:20:27.216Z,56.70
2018-09-05T12:22:56.676Z,57.50
2018-09-05T12:25:25.780Z,54.70
2018-09-05T12:27:54.917Z,53.70
2018-09-05T12:30:24.313Z,56.30
2018-09-05T12:32:55.036Z,54.30
2018-09-05T12:35:24.244Z,54.30
2018-09-05T12:37:53.612Z,55.50
2018-09-05T12:40:23.933Z,56.20
2018-09-05T12:42:53.276Z,59.70
2018-09-05T12:45:22.525Z,61.30
2018-09-05T12:47:51.836Z,59.60
2018-09-05T12:50:20.967Z,56.00
2018-09-05T12:52:50.668Z,54.70
2018-09-05T12:55:19.760Z,53.80
2018-09-05T12:57:48.892Z,52.50
2018-09-05T13:00:17.997Z,51.40
2018-09-05T13:02:47.642Z,52.60
2018-09-05T13:05:16.745Z,50.70
2018-09-05T13:07:46.175Z,48.80
2018-09-05T13:10:15.376Z,49.00
2018-09-05T13:12:44.548Z,47.10
2018-09-05T13:15:13.756Z,48.20
2018-09-05T13:17:42.868Z,48.30
2018-09-05T13:20:12.012Z,48.40
2018-09-05T13:22:42.637Z,53.00
2018-09-05T13:25:12.500Z,52.60
2018-09-05T13:27:42.284Z,52.50
2018-09-05T13:30:11.433Z,50.80
2018-09-05T13:32:40.578Z,51.20
2018-09-05T13:35:10.424Z,49.80
2018-09-05T13:37:39.828Z,49.00
2018-09-05T13:40:10.053Z,47.30
2018-09-05T13:42:41.052Z,47.10
2018-09-05T13:45:10.291Z,47.60
2018-09-05T13:47:39.377Z,46.60
2018-09-05T13:50:08.472Z,47.90
2018-09-05T13:52:37.844Z,51.30
2018-09-05T13:55:07.076Z,51.00
2018-09-05T13:57:36.368Z,51.50
2018-09-05T14:00:05.568Z,49.50
2018-09-05T14:02:35.094Z,50.30
2018-09-05T14:05:04.177Z,48.50
2018-09-05T14:07:34.244Z,48.20
2018-09-05T14:10:03.402Z,49.80
2018-09-05T14:12:32.834Z,50.50
2018-09-05T14:15:01.929Z,50.40
2018-09-05T14:17:32.286Z,49.10
2018-09-05T14:20:01.441Z,47.70
2018-09-05T14:22:30.532Z,46.70
2018-09-05T14:24:59.617Z,46.30
2018-09-05T14:27:29.489Z,47.20
2018-09-05T14:29:58.608Z,47.30
2018-09-05T14:32:28.184Z,47.00
2018-09-05T14:34:57.716Z,47.20
2018-09-05T14:37:26.816Z,47.90
2018-09-05T14:39:56.297Z,48.00
2018-09-05T14:42:25.412Z,49.20
2018-09-05T14:44:54.560Z,47.10
2018-09-05T14:47:24.652Z,50.70
2018-09-05T14:49:54.353Z,51.70
2018-09-05T14:52:23.448Z,52.10
2018-09-05T14:54:52.535Z,52.50
2018-09-05T14:57:21.620Z,53.10
2018-09-05T14:59:51.369Z,53.60
2018-09-05T15:02:21.205Z,54.50
2018-09-05T15:04:50.345Z,54.60
2018-09-05T15:07:19.645Z,56.60
2018-09-05T15:09:48.647Z,55.70
2018-09-05T15:12:17.804Z,56.00
2018-09-05T15:14:46.992Z,55.70
2018-09-05T15:17:16.152Z,56.10
2018-09-05T15:19:45.216Z,56.40
2018-09-05T15:22:14.945Z,56.60
2018-09-05T15:24:44.079Z,57.00
2018-09-05T15:27:13.245Z,57.30
2018-09-05T15:29:42.983Z,58.00
2018-09-05T15:32:12.101Z,57.50
2018-09-05T15:34:41.504Z,58.40
2018-09-05T15:37:11.432Z,59.00
2018-09-05T15:39:40.552Z,60.00
2018-09-05T15:42:09.609Z,62.40
2018-09-05T15:44:38.685Z,59.80
2018-09-05T15:47:07.825Z,58.60
2018-09-05T15:49:36.909Z,58.70
2018-09-05T15:52:07.221Z,58.80
2018-09-05T15:54:36.981Z,58.50
2018-09-05T15:57:06.585Z,57.50
2018-09-05T15:59:35.829Z,57.30
2018-09-05T16:02:04.965Z,56.70
2018-09-05T16:04:34.117Z,58.10
2018-09-05T16:07:03.367Z,58.10
2018-09-05T16:09:32.417Z,58.90
2018-09-05T16:12:01.585Z,58.80
2018-09-05T16:14:30.646Z,59.70
2018-09-05T16:16:59.743Z,60.40
2018-09-05T16:19:28.843Z,59.90
2018-09-05T16:21:57.987Z,59.80
2018-09-05T16:24:27.160Z,60.50
2018-09-05T16:26:56.225Z,60.20
2018-09-05T16:29:26.215Z,60.20
2018-09-05T16:31:55.356Z,64.60
2018-09-05T16:34:24.437Z,66.20
2018-09-05T16:36:54.040Z,67.30
2018-09-05T16:39:23.149Z,61.00
2018-09-05T16:41:53.625Z,66.50
2018-09-05T16:44:22.776Z,68.80
2018-09-05T16:46:51.838Z,69.50
2018-09-05T16:49:20.909Z,65.40
2018-09-05T16:51:50.065Z,69.40
2018-09-05T16:54:19.157Z,72.30
2018-09-05T16:56:48.297Z,71.80
2018-09-05T16:59:17.904Z,71.80
2018-09-05T17:01:47.484Z,74.80
2018-09-05T17:04:16.629Z,75.30
2018-09-05T17:06:45.724Z,78.40
2018-09-05T17:09:15.032Z,80.20
2018-09-05T17:11:44.178Z,81.30
2018-09-05T17:14:13.192Z,83.80
2018-09-05T17:16:42.302Z,86.30
2018-09-05T17:19:11.428Z,85.10
2018-09-05T17:21:40.520Z,84.60
2018-09-05T17:24:09.636Z,87.60
2018-09-05T17:26:38.680Z,89.10
2018-09-05T17:29:08.419Z,90.40
2018-09-05T17:31:39.188Z,92.00
2018-09-05T17:34:08.348Z,92.60
2018-09-05T17:36:38.014Z,94.20
2018-09-05T17:39:12.072Z,94.90
2018-09-05T17:41:41.424Z,96.40
2018-09-05T17:44:11.248Z,97.10
2018-09-05T17:46:40.400Z,97.30
2018-09-05T17:49:09.917Z,97.60
2018-09-05T17:51:39.088Z,98.90
2018-09-05T17:54:08.241Z,99.80
2018-09-05T17:56:37.348Z,99.90
2018-09-05T17:59:06.740Z,99.90
2018-09-05T18:01:35.980Z,99.90
2018-09-05T18:04:05.160Z,99.90
2018-09-05T18:06:34.480Z,99.90
2018-09-05T18:09:04.217Z,99.90
2018-09-05T18:11:33.358Z,99.90
2018-09-05T18:14:02.656Z,99.90
2018-09-05T18:16:31.884Z,99.90
2018-09-05T18:19:01.104Z,99.90
2018-09-05T18:21:30.237Z,99.90
2018-09-05T18:23:59.980Z,99.90
2018-09-05T18:26:32.174Z,99.90
2018-09-05T18:29:01.338Z,99.90
2018-09-05T18:31:30.434Z,99.90
2018-09-05T18:33:59.564Z,99.90
2018-09-05T18:36:29.674Z,99.90
2018-09-05T18:38:58.847Z,99.90
2018-09-05T18:41:27.932Z,99.90
2018-09-05T18:43:57.037Z,99.90
2018-09-05T18:46:26.148Z,99.90
2018-09-05T18:48:55.262Z,99.90
2018-09-05T18:51:24.334Z,99.90
2018-09-05T18:53:53.458Z,99.90
2018-09-05T18:56:22.524Z,99.90
2018-09-05T18:58:51.532Z,99.90
2018-09-05T19:01:20.637Z,99.90
2018-09-05T19:03:49.684Z,99.90
2018-09-05T19:06:18.828Z,99.90
2018-09-05T19:08:47.918Z,99.90
2018-09-05T19:11:17.260Z,99.90
2018-09-05T19:13:47.852Z,99.90
2018-09-05T19:16:17.120Z,99.90
2018-09-05T19:18:46.252Z,99.90
2018-09-05T19:21:15.388Z,99.90
2018-09-05T19:23:45.511Z,99.90
2018-09-05T19:26:14.856Z,99.90
2018-09-05T19:28:43.936Z,99.90
2018-09-05T19:31:13.025Z,99.90
2018-09-05T19:33:42.232Z,99.90
2018-09-05T19:36:11.353Z,99.90
2018-09-05T19:38:40.439Z,99.90
2018-09-05T19:41:09.712Z,99.90
2018-09-05T19:43:40.720Z,99.90
2018-09-05T19:46:09.949Z,99.90
2018-09-05T19:48:39.043Z,99.90
2018-09-05T19:51:08.167Z,99.90
2018-09-05T19:53:38.571Z,99.90
2018-09-05T19:56:07.672Z,99.90
2018-09-05T19:58:36.867Z,99.90
2018-09-05T20:01:06.057Z,99.90
2018-09-05T20:03:35.157Z,99.90
2018-09-05T20:06:04.249Z,99.90
2018-09-05T20:08:33.444Z,99.90
2018-09-05T20:11:02.597Z,99.90
2018-09-05T20:13:32.280Z,99.90
2018-09-05T20:16:01.617Z,99.90
2018-09-05T20:18:30.772Z,99.90
2018-09-05T20:20:59.835Z,99.90
2018-09-05T20:23:30.043Z,99.90
2018-09-05T20:25:59.109Z,99.90
2018-09-05T20:28:30.632Z,99.90
2018-09-05T20:30:59.799Z,99.90
2018-09-05T20:33:28.894Z,99.90
2018-09-05T20:35:58.020Z,99.90
2018-09-05T20:38:27.084Z,99.90
2018-09-05T20:40:57.193Z,99.90
2018-09-05T20:43:26.325Z,99.90
2018-09-05T20:45:56.764Z,99.90
2018-09-05T20:48:27.025Z,99.90
2018-09-05T20:50:57.216Z,99.90
2018-09-05T20:53:26.613Z,99.90
2018-09-05T20:55:55.767Z,99.90
2018-09-05T20:58:25.617Z,99.90
2018-09-05T21:00:54.689Z,99.90
2018-09-05T21:03:25.308Z,99.90
2018-09-05T21:05:54.405Z,99.90
2018-09-05T21:08:23.562Z,99.90
2018-09-05T21:10:52.702Z,99.90
2018-09-05T21:13:21.890Z,99.90
2018-09-05T21:15:51.041Z,99.90
2018-09-05T21:18:20.132Z,99.90
2018-09-05T21:20:49.501Z,99.90
2018-09-05T21:23:18.924Z,99.90
2018-09-05T21:25:48.037Z,99.90
2018-09-05T21:28:17.154Z,99.90
2018-09-05T21:30:46.620Z,99.90
2018-09-05T21:33:17.044Z,99.90
2018-09-05T21:35:46.140Z,99.90
2018-09-05T21:38:15.392Z,99.90
2018-09-05T21:40:44.493Z,99.90
2018-09-05T21:43:14.092Z,99.90
2018-09-05T21:45:43.693Z,99.90
2018-09-05T21:48:12.759Z,99.90
2018-09-05T21:50:42.710Z,99.90
2018-09-05T21:53:11.856Z,99.90
2018-09-05T21:55:40.976Z,99.90
2018-09-05T21:58:10.122Z,99.90
2018-09-05T22:00:39.232Z,99.90
2018-09-05T22:03:08.315Z,99.90
2018-09-05T22:05:37.428Z,99.90
2018-09-05T22:08:06.789Z,99.90
2018-09-05T22:10:35.948Z,99.90
2018-09-05T22:13:05.087Z,99.90
2018-09-05T22:15:44.704Z,99.90
2018-09-05T22:18:14.020Z,99.90
2018-09-05T22:20:43.317Z,99.90
2018-09-05T22:23:12.444Z,99.90
2018-09-05T22:25:41.581Z,99.90
2018-09-05T22:28:10.699Z,99.90
2018-09-05T22:30:39.856Z,99.90
2018-09-05T22:33:08.968Z,99.90
2018-09-05T22:35:38.081Z,99.90
2018-09-05T22:38:07.228Z,99.90
2018-09-05T22:40:42.652Z,99.90
2018-09-05T22:43:28.888Z,99.90
2018-09-05T22:46:14.952Z,99.90
2018-09-05T22:49:06.926Z,99.90
2018-09-05T22:53:26.244Z,99.90
2018-09-05T22:58:22.423Z,99.90
2018-09-05T23:03:44.661Z,99.90
2018-09-05T23:08:35.069Z,99.90
2018-09-05T23:11:22.193Z,99.90
2018-09-05T23:14:12.163Z,99.90
2018-09-05T23:20:02.415Z,99.90
2018-09-05T23:22:48.830Z,99.90
2018-09-05T23:25:18.110Z,99.90
2018-09-05T23:27:47.361Z,99.90
2018-09-05T23:30:16.456Z,99.90
2018-09-05T23:32:45.616Z,99.90
2018-09-05T23:35:15.618Z,99.90
2018-09-05T23:37:44.710Z,99.90
2018-09-05T23:40:13.898Z,99.90
2018-09-05T23:42:43.018Z,99.90
2018-09-05T23:45:12.514Z,99.90
2018-09-05T23:47:41.601Z,99.90
2018-09-05T23:50:10.718Z,99.90
2018-09-05T23:52:39.881Z,99.90
2018-09-05T23:55:09.414Z,99.90
2018-09-05T23:57:38.473Z,99.90
